Time;durP1;ratioP1;P1;durP2;ratioP2;P2;SDS_P1;SDS_P2;PMS_P1;PMS_P2;Temp;Humidity;BMP_temperature;BMP_pressure;BME280_temperature;BME280_humidity;BME280_pressure;Samples;Min_cycle;Max_cycle;Signal;HPM_P1;HPM_P2
2023/06/27 00:00:18;;;;;;;5.93;2.30;;;19.10;85.00;;;;;;5007023;28;20030;-78
2023/06/27 00:02:47;;;;;;;6.97;2.45;;;19.10;85.20;;;;;;5007452;28;20034;-80
2023/06/27 00:05:13;;;;;;;7.60;2.60;;;19.10;86.00;;;;;;5007491;28;20309;-80
2023/06/27 00:07:41;;;;;;;4.63;2.45;;;19.00;86.40;;;;;;5007241;28;20093;-76
2023/06/27 00:10:08;;;;;;;7.72;2.47;;;19.00;86.20;;;;;;5010235;28;20060;-78
2023/06/27 00:12:35;;;;;;;7.53;2.63;;;19.00;86.50;;;;;;5010357;28;20379;-77
2023/06/27 00:15:04;;;;;;;6.47;2.28;;;18.90;86.50;;;;;;5009957;28;20065;-75
2023/06/27 00:17:34;;;;;;;7.80;2.80;;;18.90;87.30;;;;;;5010213;28;20106;-81
2023/06/27 00:20:05;;;;;;;9.00;2.40;;;18.90;86.50;;;;;;5010610;28;20025;-80
2023/06/27 00:22:30;;;;;;;4.40;2.15;;;18.80;87.10;;;;;;5011159;28;20030;-77
2023/06/27 00:24:56;;;;;;;4.03;2.60;;;18.80;88.00;;;;;;5010694;28;20037;-77
2023/06/27 00:27:22;;;;;;;13.02;2.63;;;18.80;88.20;;;;;;5008357;28;20045;-77
2023/06/27 00:29:48;;;;;;;3.97;2.53;;;18.80;87.90;;;;;;5010997;28;20029;-79
2023/06/27 00:32:13;;;;;;;14.02;3.10;;;18.70;88.40;;;;;;5009808;28;20053;-80
2023/06/27 00:34:39;;;;;;;6.43;2.97;;;18.70;88.20;;;;;;5010284;28;20064;-78
2023/06/27 00:37:05;;;;;;;7.78;2.65;;;18.70;88.40;;;;;;5011031;28;20033;-79
2023/06/27 00:39:32;;;;;;;5.47;2.88;;;18.60;88.40;;;;;;5010767;28;20062;-80
2023/06/27 00:41:58;;;;;;;8.15;2.70;;;18.70;88.80;;;;;;5011296;28;20085;-74
2023/06/27 00:44:24;;;;;;;6.25;2.72;;;18.60;89.30;;;;;;5011162;28;20034;-79
2023/06/27 00:46:50;;;;;;;6.05;2.63;;;18.60;89.30;;;;;;5011408;28;20030;-78
2023/06/27 00:49:18;;;;;;;9.02;2.50;;;18.50;88.90;;;;;;5010705;28;20220;-77
2023/06/27 00:51:46;;;;;;;15.13;2.63;;;18.50;88.80;;;;;;5010791;28;20033;-80
2023/06/27 00:54:13;;;;;;;7.97;2.42;;;18.50;88.90;;;;;;5009829;28;20041;-79
2023/06/27 00:56:39;;;;;;;8.98;2.72;;;18.50;88.80;;;;;;5010746;28;20443;-80
2023/06/27 00:59:05;;;;;;;11.27;3.13;;;18.40;89.20;;;;;;5008938;28;20491;-79
2023/06/27 01:01:31;;;;;;;7.15;2.65;;;18.40;88.50;;;;;;5010352;28;20367;-76
2023/06/27 01:03:58;;;;;;;19.92;2.70;;;18.30;89.30;;;;;;5010010;28;20050;-75
2023/06/27 01:06:54;;;;;;;6.05;2.30;;;18.30;89.70;;;;;;5008835;28;20113;-81
2023/06/27 01:09:28;;;;;;;7.72;2.35;;;18.30;89.80;;;;;;5010597;28;20026;-79
2023/06/27 01:12:06;;;;;;;8.75;2.55;;;18.30;89.80;;;;;;5010193;28;20530;-78
2023/06/27 01:14:34;;;;;;;8.25;2.78;;;18.30;90.00;;;;;;5010452;28;20030;-78
2023/06/27 01:17:02;;;;;;;10.15;2.67;;;18.30;90.10;;;;;;5009886;28;20032;-73
2023/06/27 01:19:30;;;;;;;7.68;2.95;;;18.20;90.40;;;;;;5008664;28;20041;-80
2023/06/27 01:22:02;;;;;;;7.85;2.80;;;18.20;90.20;;;;;;5009961;28;20463;-76
2023/06/27 01:24:29;;;;;;;8.02;3.15;;;18.20;90.40;;;;;;5008909;28;20387;-79
2023/06/27 01:26:55;;;;;;;6.65;2.60;;;18.10;90.30;;;;;;5008801;28;20045;-77
2023/06/27 01:29:21;;;;;;;6.18;2.72;;;18.20;90.50;;;;;;5008340;28;20021;-76
2023/06/27 01:32:03;;;;;;;7.75;2.83;;;18.20;90.40;;;;;;5009414;28;20026;-79
2023/06/27 01:34:54;;;;;;;6.90;2.67;;;18.10;90.50;;;;;;4999867;28;20054;-79
2023/06/27 01:37:24;;;;;;;6.78;2.80;;;18.10;90.50;;;;;;5008077;28;20033;-78
2023/06/27 01:40:17;;;;;;;8.23;3.28;;;18.10;90.50;;;;;;5009078;28;20033;-81
2023/06/27 01:42:46;;;;;;;6.80;2.50;;;18.10;90.80;;;;;;5008734;28;20038;-79
2023/06/27 01:45:12;;;;;;;4.93;2.33;;;18.00;90.30;;;;;;5008238;28;20099;-77
2023/06/27 01:47:42;;;;;;;7.13;2.80;;;18.10;90.60;;;;;;5009702;28;20046;-79
2023/06/27 01:50:09;;;;;;;4.97;2.40;;;18.20;90.30;;;;;;5007230;28;20164;-79
2023/06/27 01:52:35;;;;;;;9.18;2.60;;;18.10;90.30;;;;;;5008539;28;20426;-78
2023/06/27 01:55:01;;;;;;;9.13;2.45;;;18.20;90.80;;;;;;5009083;28;20038;-73
2023/06/27 01:57:27;;;;;;;9.65;3.05;;;18.10;90.50;;;;;;5008557;28;20033;-80
2023/06/27 01:59:52;;;;;;;6.57;2.53;;;18.10;90.70;;;;;;5007889;28;20029;-80
2023/06/27 02:02:19;;;;;;;8.23;2.63;;;18.00;90.50;;;;;;5007568;28;20109;-82
2023/06/27 02:04:45;;;;;;;5.72;2.30;;;18.00;90.90;;;;;;5007817;28;20153;-78
2023/06/27 02:07:11;;;;;;;4.68;2.38;;;18.00;90.70;;;;;;5006355;28;20434;-80
2023/06/27 02:09:36;;;;;;;7.80;2.47;;;17.90;90.80;;;;;;5008516;28;20029;-79
2023/06/27 02:12:04;;;;;;;7.25;2.45;;;17.90;91.20;;;;;;5008839;28;20030;-75
2023/06/27 02:14:30;;;;;;;10.70;2.47;;;17.90;91.00;;;;;;5009907;28;20033;-80
2023/06/27 02:16:56;;;;;;;5.18;2.42;;;17.80;91.00;;;;;;5006395;28;20030;-76
2023/06/27 02:19:21;;;;;;;5.18;2.42;;;17.80;91.10;;;;;;5003991;28;20663;-80
2023/06/27 02:21:48;;;;;;;7.05;2.70;;;17.70;91.10;;;;;;5009256;28;20066;-80
2023/06/27 02:24:14;;;;;;;9.77;2.95;;;17.70;91.30;;;;;;5007239;28;20030;-80
2023/06/27 02:26:40;;;;;;;4.47;2.53;;;17.60;91.30;;;;;;5006396;28;20022;-79
2023/06/27 02:29:06;;;;;;;6.68;2.55;;;17.60;91.20;;;;;;5005568;28;20034;-74
2023/06/27 02:31:31;;;;;;;4.40;2.65;;;17.50;91.30;;;;;;5008153;28;20030;-80
2023/06/27 02:33:57;;;;;;;8.77;2.90;;;17.40;91.50;;;;;;5009177;28;20066;-76
2023/06/27 02:36:25;;;;;;;7.15;2.60;;;17.30;91.90;;;;;;5008584;28;20044;-78
2023/06/27 02:38:54;;;;;;;13.57;2.83;;;17.40;92.10;;;;;;5007892;28;20026;-81
2023/06/27 02:41:23;;;;;;;8.95;2.47;;;17.30;92.10;;;;;;5006323;28;20017;-81
2023/06/27 02:43:49;;;;;;;4.40;2.60;;;17.30;92.00;;;;;;5005010;28;20038;-79
2023/06/27 02:46:15;;;;;;;9.13;3.30;;;17.30;91.90;;;;;;5008238;28;20479;-77
2023/06/27 02:48:41;;;;;;;5.43;2.35;;;17.30;92.10;;;;;;5008716;28;20041;-76
2023/06/27 02:51:06;;;;;;;4.47;2.38;;;17.30;92.10;;;;;;5008359;28;20033;-74
2023/06/27 02:53:32;;;;;;;8.15;2.63;;;17.40;92.30;;;;;;5008398;28;20042;-79
2023/06/27 02:56:02;;;;;;;11.50;2.80;;;17.40;91.90;;;;;;5009172;28;20125;-80
2023/06/27 02:58:28;;;;;;;5.68;2.50;;;17.40;91.50;;;;;;5008633;28;20124;-78
2023/06/27 03:00:54;;;;;;;7.50;2.65;;;17.50;91.40;;;;;;5006854;28;20623;-78
2023/06/27 03:03:20;;;;;;;6.40;2.90;;;17.50;91.30;;;;;;5006882;28;20062;-78
2023/06/27 03:05:45;;;;;;;5.80;2.58;;;17.60;91.30;;;;;;5007755;28;20091;-79
2023/06/27 03:08:11;;;;;;;6.10;2.53;;;17.60;91.40;;;;;;5008416;28;20072;-78
2023/06/27 03:10:36;;;;;;;6.28;2.35;;;17.50;91.60;;;;;;5007042;28;20764;-75
2023/06/27 03:13:02;;;;;;;10.35;2.60;;;17.40;91.80;;;;;;5006995;28;20030;-77
2023/06/27 03:15:28;;;;;;;4.65;2.50;;;17.40;91.60;;;;;;5000099;28;20034;-77
2023/06/27 03:17:53;;;;;;;5.45;2.40;;;17.30;91.90;;;;;;5009166;28;20104;-79
2023/06/27 03:20:20;;;;;;;8.30;2.60;;;17.20;92.10;;;;;;5007368;28;20030;-79
2023/06/27 03:22:46;;;;;;;7.20;2.80;;;17.10;92.40;;;;;;5007434;28;20077;-78
2023/06/27 03:25:12;;;;;;;9.50;2.45;;;17.10;92.50;;;;;;5005696;28;20042;-78
2023/06/27 03:27:37;;;;;;;12.20;2.88;;;17.10;92.60;;;;;;5006567;28;20030;-77
2023/06/27 03:30:04;;;;;;;7.53;2.97;;;17.10;92.90;;;;;;5008091;28;20455;-79
2023/06/27 03:32:30;;;;;;;6.78;2.60;;;17.10;92.90;;;;;;4972868;28;20030;-78
2023/06/27 03:34:56;;;;;;;12.35;2.75;;;17.10;92.80;;;;;;5005886;28;20100;-77
2023/06/27 03:37:21;;;;;;;4.55;2.30;;;17.00;92.60;;;;;;4999148;28;20438;-77
2023/06/27 03:39:47;;;;;;;7.15;2.40;;;17.00;92.50;;;;;;5006694;28;20426;-79
2023/06/27 03:42:13;;;;;;;5.85;2.40;;;17.00;93.00;;;;;;5007186;28;20454;-79
2023/06/27 03:44:38;;;;;;;7.43;2.20;;;17.00;92.70;;;;;;5010712;28;20121;-77
2023/06/27 03:47:05;;;;;;;6.90;2.20;;;17.00;92.80;;;;;;5012833;28;20088;-77
2023/06/27 03:49:30;;;;;;;10.85;2.30;;;16.90;92.90;;;;;;5011737;28;20033;-76
2023/06/27 03:51:56;;;;;;;5.32;2.38;;;17.00;93.10;;;;;;5010295;28;20057;-77
2023/06/27 03:54:21;;;;;;;6.55;2.20;;;17.00;93.20;;;;;;5011963;28;20496;-80
2023/06/27 03:56:48;;;;;;;5.13;2.10;;;17.00;93.40;;;;;;5004765;28;20056;-77
2023/06/27 03:59:13;;;;;;;8.07;2.40;;;17.00;93.10;;;;;;5009771;28;20034;-80
2023/06/27 04:01:41;;;;;;;6.00;2.33;;;17.10;93.10;;;;;;4997680;28;20057;-82
2023/06/27 04:04:10;;;;;;;6.20;2.58;;;17.10;92.80;;;;;;5012381;28;20033;-76
2023/06/27 04:06:36;;;;;;;7.20;2.30;;;17.10;92.90;;;;;;5012072;28;20140;-78
2023/06/27 04:09:05;;;;;;;5.35;2.38;;;17.10;93.00;;;;;;5012404;28;20121;-79
2023/06/27 04:11:31;;;;;;;7.25;2.60;;;17.00;92.90;;;;;;5010299;28;20021;-81
2023/06/27 04:13:59;;;;;;;3.50;2.08;;;17.00;93.40;;;;;;5012141;28;20029;-77
2023/06/27 04:16:25;;;;;;;9.52;2.42;;;17.10;92.90;;;;;;5011253;28;20534;-73
2023/06/27 04:18:50;;;;;;;6.22;2.25;;;17.10;93.40;;;;;;5011213;28;20894;-80
2023/06/27 04:21:17;;;;;;;5.15;2.45;;;17.00;92.80;;;;;;5011217;28;20026;-79
2023/06/27 04:23:43;;;;;;;8.93;2.50;;;17.00;92.60;;;;;;4994224;28;20033;-84
2023/06/27 04:26:14;;;;;;;11.63;2.38;;;17.10;92.40;;;;;;5010600;28;20046;-74
2023/06/27 04:28:41;;;;;;;5.93;2.45;;;17.10;92.60;;;;;;5012016;28;20038;-75
2023/06/27 04:31:06;;;;;;;7.63;2.33;;;17.10;92.40;;;;;;5010795;28;20042;-80
2023/06/27 04:33:32;;;;;;;7.95;2.33;;;17.00;92.90;;;;;;5010794;28;20049;-78
2023/06/27 04:36:01;;;;;;;5.18;2.38;;;17.10;93.60;;;;;;5011824;28;20459;-77
2023/06/27 04:38:30;;;;;;;4.43;2.50;;;17.10;93.70;;;;;;5010216;28;20030;-80
2023/06/27 04:40:55;;;;;;;5.53;2.70;;;17.20;94.20;;;;;;4994026;28;20401;-77
2023/06/27 04:43:22;;;;;;;8.65;2.60;;;17.20;94.10;;;;;;5010759;28;20034;-79
2023/06/27 04:45:47;;;;;;;6.95;2.60;;;17.20;94.10;;;;;;5011488;28;20033;-77
2023/06/27 04:48:13;;;;;;;7.32;2.80;;;17.20;94.40;;;;;;4993392;28;20029;-74
2023/06/27 04:50:39;;;;;;;8.48;3.05;;;17.20;94.70;;;;;;5010595;28;20046;-79
2023/06/27 04:53:04;;;;;;;7.65;2.63;;;17.20;94.20;;;;;;5011492;28;20105;-78
2023/06/27 04:55:31;;;;;;;6.85;2.78;;;17.10;94.80;;;;;;5009911;28;20109;-79
2023/06/27 04:57:56;;;;;;;6.13;2.47;;;17.10;95.30;;;;;;5010246;28;20072;-78
2023/06/27 05:00:22;;;;;;;4.53;2.70;;;17.10;95.40;;;;;;5009203;28;20534;-77
2023/06/27 05:02:47;;;;;;;7.32;2.70;;;17.20;95.60;;;;;;5010823;28;20034;-78
2023/06/27 05:05:13;;;;;;;6.97;2.67;;;17.20;95.40;;;;;;5009074;28;20041;-78
2023/06/27 05:07:39;;;;;;;4.90;2.45;;;17.30;95.10;;;;;;5010603;28;20034;-80
2023/06/27 05:10:05;;;;;;;4.20;2.40;;;17.30;94.80;;;;;;5011198;28;20072;-79
2023/06/27 05:12:30;;;;;;;5.10;2.35;;;17.30;95.00;;;;;;5010388;28;20459;-80
2023/06/27 05:14:56;;;;;;;6.22;2.70;;;17.30;95.00;;;;;;5011050;28;20041;-76
2023/06/27 05:17:22;;;;;;;6.35;2.70;;;17.30;95.90;;;;;;5010262;28;20065;-80
2023/06/27 05:19:47;;;;;;;7.13;2.83;;;17.30;95.70;;;;;;5010953;28;20038;-79
2023/06/27 05:22:13;;;;;;;4.88;2.60;;;17.20;96.70;;;;;;5009152;28;20033;-74
2023/06/27 05:24:39;;;;;;;7.22;2.90;;;17.10;96.70;;;;;;5010017;28;20030;-79
2023/06/27 05:27:05;;;;;;;4.78;2.33;;;17.10;96.90;;;;;;5010932;28;20527;-76
2023/06/27 05:29:30;;;;;;;5.80;2.72;;;17.20;96.40;;;;;;5010049;28;20036;-79
2023/06/27 05:31:56;;;;;;;4.20;2.70;;;17.30;96.00;;;;;;5010681;28;20037;-79
2023/06/27 05:34:21;;;;;;;5.43;2.45;;;17.30;96.20;;;;;;5008998;28;20058;-76
2023/06/27 05:36:47;;;;;;;9.07;2.75;;;17.40;95.90;;;;;;4991945;28;20123;-76
2023/06/27 05:39:13;;;;;;;6.97;2.70;;;17.40;96.60;;;;;;5010440;28;20030;-73
2023/06/27 05:41:38;;;;;;;6.03;2.90;;;17.30;97.40;;;;;;5009129;28;20062;-79
2023/06/27 05:44:04;;;;;;;8.35;2.83;;;17.30;96.60;;;;;;5009190;28;20041;-78
2023/06/27 05:46:34;;;;;;;7.78;2.88;;;17.50;96.60;;;;;;5002166;28;20034;-75
2023/06/27 05:49:00;;;;;;;6.55;2.65;;;17.60;96.40;;;;;;5009287;28;20046;-76
2023/06/27 05:51:25;;;;;;;6.78;2.53;;;17.70;95.60;;;;;;5007790;28;20168;-77
2023/06/27 05:53:51;;;;;;;8.93;2.85;;;17.70;95.20;;;;;;5009555;28;20425;-75
2023/06/27 05:56:17;;;;;;;5.32;2.97;;;17.70;98.00;;;;;;5009047;28;20033;-73
2023/06/27 05:58:42;;;;;;;10.18;3.10;;;17.60;98.30;;;;;;4988826;28;20037;-82
2023/06/27 06:01:08;;;;;;;9.77;3.30;;;17.70;97.90;;;;;;5007355;28;20030;-78
2023/06/27 06:03:34;;;;;;;8.38;3.08;;;17.80;97.40;;;;;;5009325;28;20114;-79
2023/06/27 06:05:59;;;;;;;9.95;2.40;;;17.90;97.40;;;;;;5009299;28;20493;-75
2023/06/27 06:08:25;;;;;;;5.82;2.78;;;17.90;96.00;;;;;;5008426;28;20049;-80
2023/06/27 06:10:51;;;;;;;7.80;2.90;;;17.90;95.90;;;;;;5010121;28;20029;-79
2023/06/27 06:13:16;;;;;;;6.00;2.28;;;17.90;95.50;;;;;;5009721;28;20029;-76
2023/06/27 06:15:42;;;;;;;5.05;2.35;;;17.90;94.50;;;;;;5008491;28;20046;-78
2023/06/27 06:18:07;;;;;;;7.55;2.80;;;18.00;95.40;;;;;;5008256;28;20025;-79
2023/06/27 06:20:33;;;;;;;6.20;2.58;;;18.00;95.00;;;;;;5006617;28;20037;-79
2023/06/27 06:22:59;;;;;;;6.10;2.30;;;18.10;93.40;;;;;;5009526;28;20030;-79
2023/06/27 06:25:26;;;;;;;5.10;2.13;;;18.10;92.30;;;;;;5008973;28;20044;-79
2023/06/27 06:27:52;;;;;;;6.32;1.90;;;18.10;92.30;;;;;;5009036;28;20057;-76
2023/06/27 06:30:18;;;;;;;9.00;2.03;;;18.20;92.20;;;;;;5007111;28;20084;-74
2023/06/27 06:32:44;;;;;;;10.82;1.92;;;18.30;91.80;;;;;;5008784;28;20041;-75
2023/06/27 06:35:10;;;;;;;6.40;2.25;;;18.50;91.90;;;;;;5009191;28;20041;-84
2023/06/27 06:37:36;;;;;;;4.38;2.00;;;18.50;91.90;;;;;;4988944;28;20030;-77
2023/06/27 06:40:02;;;;;;;9.63;2.40;;;18.50;91.10;;;;;;5009538;28;20050;-83
2023/06/27 06:42:28;;;;;;;3.30;1.90;;;18.50;90.70;;;;;;5007247;28;20022;-77
2023/06/27 06:44:54;;;;;;;4.40;1.75;;;18.50;89.70;;;;;;5009592;28;20133;-79
2023/06/27 06:47:19;;;;;;;7.03;2.30;;;18.40;88.30;;;;;;5005708;28;20038;-70
2023/06/27 06:49:45;;;;;;;4.97;1.75;;;18.40;89.40;;;;;;5008648;28;20072;-78
2023/06/27 06:52:11;;;;;;;9.80;2.20;;;18.50;90.40;;;;;;5007475;28;20860;-75
2023/06/27 06:54:38;;;;;;;6.18;2.22;;;18.60;90.30;;;;;;5008550;28;20165;-79
2023/06/27 06:57:05;;;;;;;7.38;2.15;;;18.50;90.40;;;;;;5008008;28;20099;-80
2023/06/27 06:59:31;;;;;;;7.22;2.22;;;18.30;90.50;;;;;;5006502;28;20052;-77
2023/06/27 07:01:56;;;;;;;5.45;2.00;;;18.40;90.70;;;;;;5006900;28;20454;-78
2023/06/27 07:04:22;;;;;;;7.25;2.03;;;18.50;91.40;;;;;;5005766;28;20038;-75
2023/06/27 07:06:48;;;;;;;7.88;2.03;;;18.50;90.80;;;;;;5008804;28;20040;-78
2023/06/27 07:09:14;;;;;;;6.15;2.30;;;18.70;89.70;;;;;;5009205;28;20112;-80
2023/06/27 07:11:40;;;;;;;5.82;2.00;;;18.70;90.20;;;;;;5006574;28;20112;-75
2023/06/27 07:14:05;;;;;;;5.07;2.00;;;18.80;90.50;;;;;;5007150;28;20033;-76
2023/06/27 07:16:31;;;;;;;9.02;2.20;;;18.80;90.40;;;;;;5003611;28;20041;-74
2023/06/27 07:18:57;;;;;;;9.60;2.00;;;18.90;88.20;;;;;;5005384;28;20041;-75
2023/06/27 07:21:22;;;;;;;4.72;2.25;;;18.90;90.10;;;;;;4988049;28;20439;-75
2023/06/27 07:23:48;;;;;;;5.95;2.10;;;19.00;90.50;;;;;;5002195;28;20052;-83
2023/06/27 07:26:14;;;;;;;5.53;2.05;;;19.10;89.90;;;;;;5007875;28;20080;-82
2023/06/27 07:28:39;;;;;;;4.10;2.33;;;19.00;89.20;;;;;;5001832;28;20026;-77
2023/06/27 07:31:05;;;;;;;7.28;2.20;;;19.10;90.70;;;;;;4993642;28;20106;-79
2023/06/27 07:33:31;;;;;;;5.10;2.25;;;19.20;90.20;;;;;;5001723;28;20511;-77
2023/06/27 07:35:59;;;;;;;4.47;2.05;;;19.00;88.70;;;;;;4988504;28;20034;-79
2023/06/27 07:38:25;;;;;;;5.57;1.85;;;19.00;88.70;;;;;;4986863;28;20430;-79
2023/06/27 07:40:51;;;;;;;6.30;2.35;;;19.10;89.60;;;;;;4986800;28;20035;-77
2023/06/27 07:43:16;;;;;;;7.50;2.13;;;19.20;89.10;;;;;;4989257;28;20034;-77
2023/06/27 07:45:42;;;;;;;10.05;2.10;;;19.20;89.30;;;;;;4988380;28;20057;-73
2023/06/27 07:48:08;;;;;;;6.07;2.20;;;19.10;89.40;;;;;;4988440;28;20479;-80
2023/06/27 07:50:33;;;;;;;6.95;1.92;;;19.10;88.60;;;;;;5002419;28;20089;-76
2023/06/27 07:52:59;;;;;;;5.57;1.85;;;19.20;90.30;;;;;;4988801;28;20120;-79
2023/06/27 07:55:24;;;;;;;5.80;2.20;;;19.30;90.40;;;;;;4986787;28;20623;-74
2023/06/27 07:57:50;;;;;;;7.63;2.40;;;19.20;89.50;;;;;;4987509;28;20031;-81
2023/06/27 08:00:18;;;;;;;8.60;2.05;;;19.30;89.80;;;;;;5002585;28;20041;-78
2023/06/27 08:02:44;;;;;;;8.05;2.30;;;19.40;90.00;;;;;;4985950;28;20030;-80
2023/06/27 08:05:10;;;;;;;8.93;2.25;;;19.40;89.30;;;;;;4987223;28;20038;-75
2023/06/27 08:07:36;;;;;;;6.85;2.10;;;19.50;88.20;;;;;;4988286;28;20034;-79
2023/06/27 08:10:04;;;;;;;7.72;2.10;;;19.40;87.20;;;;;;4988650;28;20038;-80
2023/06/27 08:12:30;;;;;;;4.40;1.65;;;19.50;89.90;;;;;;4985552;28;20054;-77
2023/06/27 08:14:56;;;;;;;8.30;2.13;;;19.60;87.50;;;;;;4988349;28;20053;-78
2023/06/27 08:17:22;;;;;;;4.85;1.95;;;19.50;85.70;;;;;;4988811;28;20246;-73
2023/06/27 08:19:47;;;;;;;4.35;1.80;;;19.50;89.00;;;;;;4987497;28;20038;-77
2023/06/27 08:22:13;;;;;;;10.32;2.75;;;19.50;89.60;;;;;;4988838;28;20478;-79
2023/06/27 08:24:40;;;;;;;8.50;1.85;;;19.50;88.00;;;;;;4988063;28;20077;-77
2023/06/27 08:27:06;;;;;;;8.18;2.03;;;19.70;89.10;;;;;;4988095;28;20046;-77
2023/06/27 08:29:33;;;;;;;7.15;2.10;;;19.80;88.00;;;;;;4983110;28;20085;-72
2023/06/27 08:31:59;;;;;;;6.05;1.98;;;19.70;84.50;;;;;;4989011;28;20031;-77
2023/06/27 08:34:31;;;;;;;5.97;2.10;;;19.70;85.60;;;;;;5003841;28;20050;-75
2023/06/27 08:36:58;;;;;;;5.60;1.95;;;19.70;85.00;;;;;;5011514;28;20520;-80
2023/06/27 08:39:25;;;;;;;3.42;1.85;;;19.60;86.00;;;;;;5011607;28;20451;-72
2023/06/27 08:41:51;;;;;;;5.40;1.73;;;19.60;84.40;;;;;;5010270;28;20030;-76
2023/06/27 08:44:17;;;;;;;4.25;1.90;;;19.40;85.80;;;;;;5011707;28;20121;-77
2023/06/27 08:46:47;;;;;;;6.43;2.03;;;19.40;86.80;;;;;;5010222;28;20034;-74
2023/06/27 08:49:20;;;;;;;4.32;1.52;;;19.40;85.50;;;;;;5009338;28;20048;-73
2023/06/27 08:51:50;;;;;;;6.20;2.38;;;19.50;85.80;;;;;;5010664;28;20303;-74
2023/06/27 08:54:35;;;;;;;8.30;2.28;;;19.60;85.80;;;;;;5010658;28;20026;-76
2023/06/27 08:57:03;;;;;;;5.07;2.10;;;19.70;86.40;;;;;;5010401;28;20593;-77
2023/06/27 08:59:34;;;;;;;8.35;2.08;;;19.80;85.60;;;;;;5009924;28;20061;-74
2023/06/27 09:02:01;;;;;;;6.72;1.83;;;19.60;83.90;;;;;;5009669;28;20057;-76
2023/06/27 09:04:27;;;;;;;6.20;2.25;;;19.70;88.30;;;;;;5010903;28;20037;-73
2023/06/27 09:06:54;;;;;;;5.53;1.95;;;19.80;84.50;;;;;;5009403;28;20034;-75
2023/06/27 09:09:21;;;;;;;5.40;2.13;;;19.90;85.20;;;;;;5011437;28;20042;-72
2023/06/27 09:11:50;;;;;;;6.47;1.92;;;20.00;85.60;;;;;;5009308;28;20038;-72
2023/06/27 09:14:20;;;;;;;5.32;2.20;;;20.10;83.20;;;;;;5010143;28;20100;-76
2023/06/27 09:16:46;;;;;;;6.25;1.65;;;20.30;84.90;;;;;;5009299;28;20185;-76
2023/06/27 09:19:13;;;;;;;6.45;2.20;;;20.40;84.10;;;;;;5009588;28;20528;-77
2023/06/27 09:21:39;;;;;;;12.32;1.92;;;20.30;82.10;;;;;;5008458;28;20026;-77
2023/06/27 09:24:06;;;;;;;6.30;1.90;;;20.20;83.80;;;;;;5010164;28;20090;-76
2023/06/27 09:26:32;;;;;;;4.45;1.92;;;20.40;82.60;;;;;;5007896;28;20036;-75
2023/06/27 09:28:59;;;;;;;8.68;1.80;;;20.50;83.00;;;;;;5009981;28;20038;-78
2023/06/27 09:31:26;;;;;;;3.67;1.95;;;20.80;82.90;;;;;;5008969;28;20030;-79
2023/06/27 09:34:03;;;;;;;4.68;2.10;;;20.70;82.40;;;;;;5008946;28;20049;-80
2023/06/27 09:36:37;;;;;;;3.38;1.95;;;20.80;83.00;;;;;;5007800;28;20037;-72
2023/06/27 09:39:08;;;;;;;9.48;2.22;;;20.70;82.00;;;;;;5006001;28;20029;-77
2023/06/27 09:41:41;;;;;;;5.63;1.90;;;20.90;78.10;;;;;;5006464;28;20029;-80
2023/06/27 09:44:14;;;;;;;6.20;1.88;;;21.00;76.80;;;;;;5010321;28;20607;-72
2023/06/27 09:46:45;;;;;;;4.05;2.10;;;21.10;80.30;;;;;;5008856;28;20041;-78
2023/06/27 09:49:11;;;;;;;3.58;1.65;;;21.30;78.20;;;;;;5010028;28;20041;-72
2023/06/27 09:51:38;;;;;;;13.27;2.17;;;21.70;75.40;;;;;;5008645;28;20038;-77
2023/06/27 09:54:04;;;;;;;6.05;2.10;;;21.90;76.40;;;;;;5009716;28;20041;-75
2023/06/27 09:56:34;;;;;;;6.55;2.15;;;21.50;74.30;;;;;;5007858;28;20391;-72
2023/06/27 09:59:10;;;;;;;3.97;2.20;;;21.50;77.00;;;;;;5009246;28;20044;-76
2023/06/27 10:01:40;;;;;;;6.05;2.05;;;21.70;76.00;;;;;;5008868;28;20475;-78
2023/06/27 10:04:06;;;;;;;11.40;2.75;;;21.60;76.70;;;;;;5009285;28;20116;-81
2023/06/27 10:06:33;;;;;;;7.93;2.65;;;21.80;77.50;;;;;;5006547;28;20402;-72
2023/06/27 10:08:59;;;;;;;8.57;2.30;;;21.90;77.70;;;;;;5010009;28;20084;-76
2023/06/27 10:11:26;;;;;;;4.88;2.28;;;22.20;77.00;;;;;;5008051;28;20038;-73
2023/06/27 10:13:52;;;;;;;4.63;2.42;;;22.50;75.30;;;;;;5008816;28;20045;-76
2023/06/27 10:16:18;;;;;;;9.27;2.75;;;22.40;72.90;;;;;;4998717;28;20460;-74
2023/06/27 10:18:44;;;;;;;8.25;2.80;;;22.30;75.90;;;;;;4998484;28;20033;-75
2023/06/27 10:21:11;;;;;;;9.57;2.92;;;22.10;76.80;;;;;;5006587;28;20034;-74
2023/06/27 10:23:42;;;;;;;11.02;2.63;;;21.80;77.30;;;;;;5008859;28;20513;-74
2023/06/27 10:26:11;;;;;;;9.80;2.97;;;21.90;77.00;;;;;;5006553;28;20038;-74
2023/06/27 10:28:37;;;;;;;6.80;2.95;;;21.80;75.90;;;;;;5007489;28;20034;-76
2023/06/27 10:31:05;;;;;;;5.65;2.35;;;21.60;76.10;;;;;;5006266;28;20037;-76
2023/06/27 10:33:41;;;;;;;7.10;2.42;;;21.70;77.50;;;;;;5006525;28;20049;-73
2023/06/27 10:36:10;;;;;;;5.68;2.63;;;21.90;76.20;;;;;;5006020;28;20034;-77
2023/06/27 10:38:40;;;;;;;10.63;2.80;;;22.00;75.60;;;;;;5005578;28;20425;-73
2023/06/27 10:41:11;;;;;;;5.65;2.60;;;21.80;76.20;;;;;;5007946;28;20034;-77
2023/06/27 10:43:46;;;;;;;8.85;2.53;;;21.60;77.40;;;;;;5006118;28;20065;-78
2023/06/27 10:46:22;;;;;;;6.45;2.53;;;21.50;77.40;;;;;;5005803;28;20053;-76
2023/06/27 10:49:01;;;;;;;6.95;2.35;;;21.50;77.60;;;;;;5000600;28;20037;-76
2023/06/27 10:51:43;;;;;;;7.32;2.63;;;21.70;77.90;;;;;;5005289;28;20033;-74
2023/06/27 10:54:09;;;;;;;8.90;2.30;;;22.10;74.20;;;;;;5006227;28;20037;-78
2023/06/27 10:56:48;;;;;;;10.15;2.25;;;22.40;73.60;;;;;;5003296;28;20525;-73
2023/06/27 10:59:18;;;;;;;6.20;2.08;;;22.90;74.40;;;;;;4988209;28;20037;-74
2023/06/27 11:01:51;;;;;;;5.78;2.63;;;23.00;73.90;;;;;;5006732;28;20034;-76
2023/06/27 11:04:27;;;;;;;6.07;2.58;;;22.80;70.40;;;;;;5006831;28;20042;-79
2023/06/27 11:07:00;;;;;;;4.22;2.45;;;22.30;71.10;;;;;;4988669;28;20033;-79
2023/06/27 11:09:30;;;;;;;10.48;2.50;;;22.20;74.80;;;;;;5007369;28;20034;-77
2023/06/27 11:12:17;;;;;;;5.07;2.30;;;22.20;75.00;;;;;;5006631;28;20037;-76
2023/06/27 11:14:45;;;;;;;4.50;2.58;;;22.10;73.90;;;;;;5003599;28;20038;-82
2023/06/27 11:17:17;;;;;;;5.90;2.38;;;22.20;72.90;;;;;;5008042;28;20139;-84
2023/06/27 11:19:43;;;;;;;7.95;2.22;;;22.20;73.40;;;;;;5007165;28;20045;-88
2023/06/27 11:22:10;;;;;;;9.75;2.55;;;21.90;72.30;;;;;;5006693;28;20022;-77
2023/06/27 11:24:36;;;;;;;5.45;2.15;;;21.90;73.00;;;;;;5006506;28;20026;-74
2023/06/27 11:27:08;;;;;;;6.75;2.38;;;22.10;74.60;;;;;;5005298;28;20104;-76
2023/06/27 11:29:34;;;;;;;13.02;3.10;;;22.30;72.90;;;;;;5007195;28;20044;-76
2023/06/27 11:32:06;;;;;;;9.18;2.30;;;22.30;73.50;;;;;;5006527;28;20087;-80
2023/06/27 11:34:32;;;;;;;6.05;2.28;;;22.10;73.10;;;;;;4993291;28;20054;-77
2023/06/27 11:36:57;;;;;;;5.47;2.28;;;22.10;73.70;;;;;;5006131;28;20048;-76
2023/06/27 11:39:23;;;;;;;5.22;2.08;;;22.10;74.20;;;;;;5006569;28;20049;-78
2023/06/27 11:41:53;;;;;;;6.22;2.42;;;22.20;75.20;;;;;;5006339;28;20116;-80
2023/06/27 11:44:19;;;;;;;7.15;2.15;;;22.40;74.70;;;;;;5005214;28;20490;-77
2023/06/27 11:46:49;;;;;;;6.43;2.67;;;22.30;74.70;;;;;;5005230;28;20042;-78
2023/06/27 11:49:15;;;;;;;;;;;22.40;72.10;;;;;;5005343;28;20444;-79
2023/06/27 11:51:42;;;;;;;4.60;2.40;;;22.30;72.50;;;;;;5006558;28;19921;-77
2023/06/27 11:54:08;;;;;;;7.10;2.60;;;22.40;72.80;;;;;;5006686;28;20042;-76
2023/06/27 11:56:39;;;;;;;5.70;2.25;;;22.40;71.20;;;;;;5007145;28;20066;-79
2023/06/27 11:59:06;;;;;;;7.47;2.40;;;22.20;72.60;;;;;;5007617;28;20506;-77
2023/06/27 12:01:40;;;;;;;4.43;2.40;;;22.40;73.30;;;;;;5008184;28;20044;-79
2023/06/27 12:04:17;;;;;;;5.03;2.33;;;22.40;71.10;;;;;;5006846;28;20123;-74
2023/06/27 12:06:47;;;;;;;6.65;2.90;;;22.40;73.10;;;;;;5009118;28;20048;-78
2023/06/27 12:09:20;;;;;;;6.70;3.00;;;22.70;72.80;;;;;;5011745;28;20034;-79
2023/06/27 12:11:51;;;;;;;5.35;2.45;;;23.10;69.00;;;;;;5009649;28;20470;-78
2023/06/27 12:14:24;;;;;;;6.55;2.22;;;23.40;68.30;;;;;;5009825;28;20026;-75
2023/06/27 12:16:50;;;;;;;4.38;2.10;;;23.00;65.80;;;;;;5010782;28;20116;-81
2023/06/27 12:19:18;;;;;;;5.20;2.38;;;22.90;68.20;;;;;;5006985;28;20116;-77
2023/06/27 12:21:44;;;;;;;7.60;2.85;;;22.90;68.00;;;;;;5010716;28;20026;-79
2023/06/27 12:24:10;;;;;;;6.85;2.53;;;22.90;69.10;;;;;;5005083;28;20037;-74
2023/06/27 12:26:35;;;;;;;9.13;2.70;;;22.70;68.10;;;;;;5008113;28;20718;-77
2023/06/27 12:29:03;;;;;;;6.20;2.60;;;22.70;70.00;;;;;;5009193;28;20037;-78
2023/06/27 12:31:29;;;;;;;7.07;2.13;;;22.60;70.90;;;;;;5010540;28;20112;-77
2023/06/27 12:33:55;;;;;;;5.10;2.65;;;22.60;69.80;;;;;;5010392;28;20087;-76
2023/06/27 12:36:23;;;;;;;6.13;2.22;;;22.60;69.20;;;;;;5009350;28;20033;-76
2023/06/27 12:38:49;;;;;;;6.88;2.25;;;22.70;71.10;;;;;;5010165;28;20091;-75
2023/06/27 12:41:18;;;;;;;7.63;2.50;;;22.90;71.80;;;;;;5006611;28;20029;-74
2023/06/27 12:43:45;;;;;;;6.60;2.70;;;22.80;70.50;;;;;;5008594;28;20834;-75
2023/06/27 12:46:11;;;;;;;8.70;2.38;;;22.80;70.20;;;;;;5005588;28;20042;-72